sensor_id;sensor_type;location;lat;lon;timestamp;pressure;altitude;pressure_sealevel;temperature;humidity
19236;BME280;9752;54.270;12.470;2023-03-16T00:04:44;101893.66;;;2.72;100.00
19236;BME280;9752;54.270;12.470;2023-03-16T00:09:48;101904.50;;;2.69;100.00
19236;BME280;9752;54.270;12.470;2023-03-16T00:14:49;101914.03;;;2.63;100.00
19236;BME280;9752;54.270;12.470;2023-03-16T00:19:53;101912.22;;;2.62;100.00
19236;BME280;9752;54.270;12.470;2023-03-16T00:24:56;101919.75;;;2.61;100.00
19236;BME280;9752;54.270;12.470;2023-03-16T00:29:58;101922.25;;;2.68;100.00
19236;BME280;9752;54.270;12.470;2023-03-16T00:35:05;101931.41;;;2.66;100.00
19236;BME280;9752;54.270;12.470;2023-03-16T00:40:09;101933.50;;;2.77;100.00
19236;BME280;9752;54.270;12.470;2023-03-16T00:45:13;101934.47;;;2.86;100.00
19236;BME280;9752;54.270;12.470;2023-03-16T00:50:14;101939.03;;;3.05;100.00
19236;BME280;9752;54.270;12.470;2023-03-16T00:55:18;101954.00;;;3.09;100.00
19236;BME280;9752;54.270;12.470;2023-03-16T01:00:20;101933.84;;;3.12;100.00
19236;BME280;9752;54.270;12.470;2023-03-16T01:05:25;101949.41;;;3.13;100.00
19236;BME280;9752;54.270;12.470;2023-03-16T01:10:29;101949.66;;;3.08;100.00
19236;BME280;9752;54.270;12.470;2023-03-16T01:15:31;101948.31;;;3.11;100.00
19236;BME280;9752;54.270;12.470;2023-03-16T01:20:34;101952.13;;;3.15;100.00
19236;BME280;9752;54.270;12.470;2023-03-16T01:25:37;101959.25;;;3.18;100.00
19236;BME280;9752;54.270;12.470;2023-03-16T01:30:39;101968.00;;;3.20;100.00
19236;BME280;9752;54.270;12.470;2023-03-16T01:35:40;101966.75;;;3.16;100.00
19236;BME280;9752;54.270;12.470;2023-03-16T01:40:44;101983.38;;;3.20;100.00
19236;BME280;9752;54.270;12.470;2023-03-16T01:46:21;101980.16;;;3.29;100.00
19236;BME280;9752;54.270;12.470;2023-03-16T01:51:29;101978.59;;;3.23;100.00
19236;BME280;9752;54.270;12.470;2023-03-16T01:56:37;101976.19;;;3.24;100.00
19236;BME280;9752;54.270;12.470;2023-03-16T02:01:41;101987.91;;;3.22;100.00
19236;BME280;9752;54.270;12.470;2023-03-16T02:06:44;102000.44;;;3.19;100.00
19236;BME280;9752;54.270;12.470;2023-03-16T02:11:48;102001.16;;;3.02;100.00
19236;BME280;9752;54.270;12.470;2023-03-16T02:16:51;101999.88;;;2.83;100.00
19236;BME280;9752;54.270;12.470;2023-03-16T02:21:59;102011.25;;;2.78;100.00
19236;BME280;9752;54.270;12.470;2023-03-16T02:27:07;102022.34;;;2.85;100.00
19236;BME280;9752;54.270;12.470;2023-03-16T02:32:14;102031.63;;;2.92;100.00
19236;BME280;9752;54.270;12.470;2023-03-16T02:37:17;102038.56;;;2.93;100.00
19236;BME280;9752;54.270;12.470;2023-03-16T02:42:21;102046.09;;;2.91;100.00
19236;BME280;9752;54.270;12.470;2023-03-16T02:47:33;102048.78;;;2.77;100.00
19236;BME280;9752;54.270;12.470;2023-03-16T02:52:37;102055.03;;;2.49;100.00
19236;BME280;9752;54.270;12.470;2023-03-16T02:57:39;102061.00;;;2.33;100.00
19236;BME280;9752;54.270;12.470;2023-03-16T03:02:47;102064.88;;;2.23;100.00
19236;BME280;9752;54.270;12.470;2023-03-16T03:07:49;102071.88;;;2.17;100.00
19236;BME280;9752;54.270;12.470;2023-03-16T03:12:51;102086.25;;;2.23;100.00
19236;BME280;9752;54.270;12.470;2023-03-16T03:17:55;102089.94;;;2.18;100.00
19236;BME280;9752;54.270;12.470;2023-03-16T03:22:58;102105.28;;;2.18;100.00
19236;BME280;9752;54.270;12.470;2023-03-16T03:28:01;102101.66;;;2.16;100.00
19236;BME280;9752;54.270;12.470;2023-03-16T03:33:06;102113.72;;;2.17;100.00
19236;BME280;9752;54.270;12.470;2023-03-16T03:38:08;102118.66;;;2.15;100.00
19236;BME280;9752;54.270;12.470;2023-03-16T03:43:11;102130.88;;;2.25;100.00
19236;BME280;9752;54.270;12.470;2023-03-16T03:48:17;102136.34;;;2.28;100.00
19236;BME280;9752;54.270;12.470;2023-03-16T03:53:19;102132.88;;;2.28;100.00
19236;BME280;9752;54.270;12.470;2023-03-16T03:58:44;102134.66;;;1.91;100.00
19236;BME280;9752;54.270;12.470;2023-03-16T04:03:52;102134.41;;;1.60;100.00
19236;BME280;9752;54.270;12.470;2023-03-16T04:08:53;102126.53;;;1.36;100.00
19236;BME280;9752;54.270;12.470;2023-03-16T04:13:59;102136.44;;;1.33;100.00
19236;BME280;9752;54.270;12.470;2023-03-16T04:19:03;102140.97;;;1.29;100.00
19236;BME280;9752;54.270;12.470;2023-03-16T04:24:05;102153.78;;;1.14;100.00
19236;BME280;9752;54.270;12.470;2023-03-16T04:29:09;102164.88;;;0.86;100.00
19236;BME280;9752;54.270;12.470;2023-03-16T04:34:13;102168.69;;;0.75;100.00
19236;BME280;9752;54.270;12.470;2023-03-16T04:39:15;102188.69;;;0.58;100.00
19236;BME280;9752;54.270;12.470;2023-03-16T04:44:17;102192.78;;;0.70;100.00
19236;BME280;9752;54.270;12.470;2023-03-16T04:49:21;102203.47;;;0.61;100.00
19236;BME280;9752;54.270;12.470;2023-03-16T04:54:23;102206.19;;;0.55;100.00
19236;BME280;9752;54.270;12.470;2023-03-16T04:59:24;102224.44;;;0.58;100.00
19236;BME280;9752;54.270;12.470;2023-03-16T05:04:47;102223.63;;;0.37;100.00
19236;BME280;9752;54.270;12.470;2023-03-16T05:09:49;102224.97;;;-0.13;100.00
19236;BME280;9752;54.270;12.470;2023-03-16T05:14:51;102233.78;;;-0.04;100.00
19236;BME280;9752;54.270;12.470;2023-03-16T05:20:11;102261.75;;;0.09;100.00
19236;BME280;9752;54.270;12.470;2023-03-16T05:25:18;102269.59;;;-0.17;100.00
19236;BME280;9752;54.270;12.470;2023-03-16T05:30:25;102276.56;;;-0.36;100.00
19236;BME280;9752;54.270;12.470;2023-03-16T05:35:30;102288.13;;;-0.45;100.00
19236;BME280;9752;54.270;12.470;2023-03-16T05:40:37;102305.47;;;-0.15;100.00
19236;BME280;9752;54.270;12.470;2023-03-16T05:45:57;102313.66;;;0.02;100.00
19236;BME280;9752;54.270;12.470;2023-03-16T05:51:01;102332.41;;;0.03;100.00
19236;BME280;9752;54.270;12.470;2023-03-16T05:56:06;102358.63;;;0.02;100.00
19236;BME280;9752;54.270;12.470;2023-03-16T06:01:12;102361.19;;;0.02;100.00
19236;BME280;9752;54.270;12.470;2023-03-16T06:06:18;102362.81;;;0.01;100.00
19236;BME280;9752;54.270;12.470;2023-03-16T06:11:28;102366.47;;;0.03;100.00
19236;BME280;9752;54.270;12.470;2023-03-16T06:16:32;102373.94;;;0.02;100.00
19236;BME280;9752;54.270;12.470;2023-03-16T06:21:35;102385.22;;;-0.04;100.00
19236;BME280;9752;54.270;12.470;2023-03-16T06:26:43;102388.34;;;0.01;100.00
19236;BME280;9752;54.270;12.470;2023-03-16T06:31:46;102416.97;;;0.06;100.00
19236;BME280;9752;54.270;12.470;2023-03-16T06:36:52;102415.78;;;0.16;100.00
19236;BME280;9752;54.270;12.470;2023-03-16T06:41:54;102422.63;;;0.23;100.00
19236;BME280;9752;54.270;12.470;2023-03-16T06:46:56;102421.81;;;0.37;100.00
19236;BME280;9752;54.270;12.470;2023-03-16T06:51:59;102435.66;;;0.59;100.00
19236;BME280;9752;54.270;12.470;2023-03-16T06:57:04;102446.34;;;0.76;100.00
19236;BME280;9752;54.270;12.470;2023-03-16T07:02:06;102451.06;;;1.01;100.00
19236;BME280;9752;54.270;12.470;2023-03-16T07:07:09;102454.28;;;1.27;100.00
19236;BME280;9752;54.270;12.470;2023-03-16T07:12:12;102467.34;;;1.50;100.00
19236;BME280;9752;54.270;12.470;2023-03-16T07:17:14;102465.41;;;1.76;100.00
19236;BME280;9752;54.270;12.470;2023-03-16T07:22:17;102469.16;;;2.00;100.00
19236;BME280;9752;54.270;12.470;2023-03-16T07:27:19;102466.97;;;2.17;100.00
19236;BME280;9752;54.270;12.470;2023-03-16T07:32:23;102475.41;;;2.38;100.00
19236;BME280;9752;54.270;12.470;2023-03-16T07:37:26;102465.34;;;2.53;100.00
19236;BME280;9752;54.270;12.470;2023-03-16T07:42:31;102448.25;;;2.90;100.00
19236;BME280;9752;54.270;12.470;2023-03-16T07:47:48;102437.59;;;3.16;100.00
19236;BME280;9752;54.270;12.470;2023-03-16T07:53:21;102420.31;;;3.29;100.00
19236;BME280;9752;54.270;12.470;2023-03-16T07:58:27;102388.44;;;3.34;100.00
19236;BME280;9752;54.270;12.470;2023-03-16T08:03:29;102387.69;;;3.65;100.00
19236;BME280;9752;54.270;12.470;2023-03-16T08:08:32;102368.97;;;3.97;100.00
19236;BME280;9752;54.270;12.470;2023-03-16T08:13:34;102355.50;;;4.06;100.00
19236;BME280;9752;54.270;12.470;2023-03-16T08:18:36;102350.44;;;4.15;100.00
19236;BME280;9752;54.270;12.470;2023-03-16T08:23:40;102346.09;;;4.30;100.00
19236;BME280;9752;54.270;12.470;2023-03-16T08:28:43;102341.09;;;4.55;100.00
19236;BME280;9752;54.270;12.470;2023-03-16T08:33:47;102333.09;;;4.28;100.00
19236;BME280;9752;54.270;12.470;2023-03-16T08:38:53;102336.84;;;4.87;100.00
19236;BME280;9752;54.270;12.470;2023-03-16T08:43:55;102331.06;;;5.37;100.00
19236;BME280;9752;54.270;12.470;2023-03-16T08:48:58;102323.13;;;5.52;100.00
19236;BME280;9752;54.270;12.470;2023-03-16T08:54:02;102328.09;;;5.75;100.00
19236;BME280;9752;54.270;12.470;2023-03-16T08:59:03;102311.44;;;5.71;100.00
19236;BME280;9752;54.270;12.470;2023-03-16T09:04:05;102307.09;;;5.87;100.00
19236;BME280;9752;54.270;12.470;2023-03-16T09:09:08;102302.44;;;5.92;100.00
19236;BME280;9752;54.270;12.470;2023-03-16T09:14:10;102297.34;;;6.01;100.00
19236;BME280;9752;54.270;12.470;2023-03-16T09:19:12;102294.31;;;6.05;100.00
19236;BME280;9752;54.270;12.470;2023-03-16T09:24:14;102294.44;;;6.40;100.00
19236;BME280;9752;54.270;12.470;2023-03-16T09:29:17;102296.28;;;6.50;100.00
19236;BME280;9752;54.270;12.470;2023-03-16T09:34:18;102293.44;;;6.64;100.00
19236;BME280;9752;54.270;12.470;2023-03-16T09:39:21;102291.13;;;6.58;100.00
19236;BME280;9752;54.270;12.470;2023-03-16T09:44:31;102291.56;;;6.54;100.00
19236;BME280;9752;54.270;12.470;2023-03-16T09:49:36;102295.81;;;6.71;100.00
19236;BME280;9752;54.270;12.470;2023-03-16T09:54:46;102288.81;;;7.22;100.00
19236;BME280;9752;54.270;12.470;2023-03-16T09:59:51;102288.72;;;7.21;100.00
19236;BME280;9752;54.270;12.470;2023-03-16T10:05:00;102290.88;;;7.61;100.00
19236;BME280;9752;54.270;12.470;2023-03-16T10:10:19;102296.44;;;7.84;100.00
19236;BME280;9752;54.270;12.470;2023-03-16T10:15:25;102292.25;;;7.94;100.00
19236;BME280;9752;54.270;12.470;2023-03-16T10:20:30;102283.53;;;8.11;100.00
19236;BME280;9752;54.270;12.470;2023-03-16T10:25:41;102280.56;;;8.53;100.00
19236;BME280;9752;54.270;12.470;2023-03-16T10:30:44;102286.03;;;8.56;100.00
19236;BME280;9752;54.270;12.470;2023-03-16T10:35:50;102282.75;;;8.40;100.00
19236;BME280;9752;54.270;12.470;2023-03-16T10:40:55;102281.31;;;8.25;100.00
19236;BME280;9752;54.270;12.470;2023-03-16T10:46:00;102277.75;;;8.42;100.00
19236;BME280;9752;54.270;12.470;2023-03-16T10:51:06;102270.50;;;8.29;100.00
19236;BME280;9752;54.270;12.470;2023-03-16T10:56:11;102275.28;;;8.15;100.00
19236;BME280;9752;54.270;12.470;2023-03-16T11:01:17;102274.34;;;8.24;100.00
19236;BME280;9752;54.270;12.470;2023-03-16T11:06:21;102253.34;;;8.29;100.00
19236;BME280;9752;54.270;12.470;2023-03-16T11:11:28;102263.25;;;8.52;100.00
19236;BME280;9752;54.270;12.470;2023-03-16T11:16:34;102252.25;;;8.74;100.00
19236;BME280;9752;54.270;12.470;2023-03-16T11:21:39;102247.63;;;8.61;100.00
19236;BME280;9752;54.270;12.470;2023-03-16T11:26:47;102250.66;;;9.14;100.00
19236;BME280;9752;54.270;12.470;2023-03-16T11:31:56;102243.28;;;9.37;100.00
19236;BME280;9752;54.270;12.470;2023-03-16T11:37:10;102257.50;;;9.32;100.00
19236;BME280;9752;54.270;12.470;2023-03-16T11:42:36;102235.94;;;9.13;100.00
19236;BME280;9752;54.270;12.470;2023-03-16T11:48:07;102234.78;;;9.59;100.00
19236;BME280;9752;54.270;12.470;2023-03-16T11:53:18;102229.13;;;9.73;100.00
19236;BME280;9752;54.270;12.470;2023-03-16T11:58:37;102228.56;;;9.17;100.00
19236;BME280;9752;54.270;12.470;2023-03-16T12:03:53;102224.56;;;9.61;100.00
19236;BME280;9752;54.270;12.470;2023-03-16T12:09:21;102215.84;;;9.50;100.00
19236;BME280;9752;54.270;12.470;2023-03-16T12:14:31;102198.97;;;9.94;100.00
19236;BME280;9752;54.270;12.470;2023-03-16T12:19:39;102200.34;;;9.60;100.00
19236;BME280;9752;54.270;12.470;2023-03-16T12:24:43;102191.91;;;9.52;100.00
19236;BME280;9752;54.270;12.470;2023-03-16T12:29:54;102178.63;;;9.89;100.00
19236;BME280;9752;54.270;12.470;2023-03-16T12:35:04;102172.91;;;9.83;100.00
19236;BME280;9752;54.270;12.470;2023-03-16T12:40:21;102174.97;;;9.97;100.00
19236;BME280;9752;54.270;12.470;2023-03-16T12:45:32;102167.88;;;10.15;100.00
19236;BME280;9752;54.270;12.470;2023-03-16T12:50:47;102168.00;;;10.06;100.00
19236;BME280;9752;54.270;12.470;2023-03-16T12:55:50;102158.41;;;9.95;100.00
19236;BME280;9752;54.270;12.470;2023-03-16T13:00:58;102162.41;;;9.91;100.00
19236;BME280;9752;54.270;12.470;2023-03-16T13:06:01;102156.06;;;9.77;100.00
19236;BME280;9752;54.270;12.470;2023-03-16T13:11:04;102149.06;;;9.87;100.00
19236;BME280;9752;54.270;12.470;2023-03-16T13:16:09;102162.41;;;9.91;100.00
19236;BME280;9752;54.270;12.470;2023-03-16T13:21:34;102153.63;;;9.79;100.00
19236;BME280;9752;54.270;12.470;2023-03-16T13:26:38;102151.91;;;10.21;100.00
19236;BME280;9752;54.270;12.470;2023-03-16T13:31:43;102149.03;;;10.28;100.00
19236;BME280;9752;54.270;12.470;2023-03-16T13:36:45;102149.16;;;10.50;100.00
19236;BME280;9752;54.270;12.470;2023-03-16T13:41:54;102127.00;;;10.12;100.00
19236;BME280;9752;54.270;12.470;2023-03-16T13:47:02;102130.88;;;10.48;100.00
19236;BME280;9752;54.270;12.470;2023-03-16T13:52:04;102128.19;;;10.37;100.00
19236;BME280;9752;54.270;12.470;2023-03-16T13:57:05;102119.31;;;10.55;100.00
19236;BME280;9752;54.270;12.470;2023-03-16T14:02:16;102124.69;;;10.36;100.00
19236;BME280;9752;54.270;12.470;2023-03-16T14:07:19;102114.28;;;10.46;100.00
19236;BME280;9752;54.270;12.470;2023-03-16T14:12:25;102102.41;;;10.60;100.00
19236;BME280;9752;54.270;12.470;2023-03-16T14:17:28;102086.75;;;10.48;100.00
19236;BME280;9752;54.270;12.470;2023-03-16T14:22:33;102083.47;;;10.08;100.00
19236;BME280;9752;54.270;12.470;2023-03-16T14:27:42;102073.38;;;10.11;100.00
19236;BME280;9752;54.270;12.470;2023-03-16T14:32:55;102072.59;;;10.02;100.00
19236;BME280;9752;54.270;12.470;2023-03-16T14:38:17;102069.47;;;10.06;100.00
19236;BME280;9752;54.270;12.470;2023-03-16T14:43:20;102071.34;;;9.66;100.00
19236;BME280;9752;54.270;12.470;2023-03-16T14:48:25;102050.09;;;9.40;99.05
19236;BME280;9752;54.270;12.470;2023-03-16T14:53:28;102044.53;;;9.45;96.55
19236;BME280;9752;54.270;12.470;2023-03-16T14:58:30;102039.19;;;9.13;92.80
19236;BME280;9752;54.270;12.470;2023-03-16T15:03:34;102037.38;;;9.12;93.86
19236;BME280;9752;54.270;12.470;2023-03-16T15:08:39;102034.66;;;9.10;95.04
19236;BME280;9752;54.270;12.470;2023-03-16T15:13:44;102030.41;;;9.21;97.05
19236;BME280;9752;54.270;12.470;2023-03-16T15:19:04;102009.09;;;10.72;90.28
19236;BME280;9752;54.270;12.470;2023-03-16T15:24:08;101998.22;;;10.88;85.33
19236;BME280;9752;54.270;12.470;2023-03-16T15:29:11;101987.00;;;11.33;84.68
19236;BME280;9752;54.270;12.470;2023-03-16T15:34:15;101983.91;;;11.96;83.40
19236;BME280;9752;54.270;12.470;2023-03-16T15:39:20;101971.88;;;11.51;78.37
19236;BME280;9752;54.270;12.470;2023-03-16T15:44:24;101974.78;;;11.44;77.99
19236;BME280;9752;54.270;12.470;2023-03-16T15:49:28;101974.69;;;11.42;78.74
19236;BME280;9752;54.270;12.470;2023-03-16T15:54:31;101984.47;;;10.67;81.94
19236;BME280;9752;54.270;12.470;2023-03-16T15:59:35;101992.41;;;10.58;88.04
19236;BME280;9752;54.270;12.470;2023-03-16T16:04:38;101989.69;;;10.57;91.97
19236;BME280;9752;54.270;12.470;2023-03-16T16:09:40;101990.34;;;10.32;98.41
19236;BME280;9752;54.270;12.470;2023-03-16T16:14:42;101989.50;;;9.58;100.00
19236;BME280;9752;54.270;12.470;2023-03-16T16:19:46;101998.28;;;8.49;100.00
19236;BME280;9752;54.270;12.470;2023-03-16T16:24:48;102006.88;;;7.53;100.00
19236;BME280;9752;54.270;12.470;2023-03-16T16:29:50;102002.59;;;6.88;100.00
19236;BME280;9752;54.270;12.470;2023-03-16T16:34:53;101998.22;;;6.33;100.00
19236;BME280;9752;54.270;12.470;2023-03-16T16:39:55;101993.75;;;6.04;100.00
19236;BME280;9752;54.270;12.470;2023-03-16T16:44:57;101999.19;;;5.81;100.00
19236;BME280;9752;54.270;12.470;2023-03-16T16:50:00;101999.94;;;5.62;100.00
19236;BME280;9752;54.270;12.470;2023-03-16T16:55:02;102009.59;;;5.30;100.00
19236;BME280;9752;54.270;12.470;2023-03-16T17:00:09;102009.34;;;5.02;100.00
19236;BME280;9752;54.270;12.470;2023-03-16T17:05:19;102000.25;;;4.88;100.00
19236;BME280;9752;54.270;12.470;2023-03-16T17:10:22;101985.72;;;4.80;100.00
19236;BME280;9752;54.270;12.470;2023-03-16T17:15:27;101986.16;;;4.76;100.00
19236;BME280;9752;54.270;12.470;2023-03-16T17:20:31;101975.38;;;4.72;100.00
19236;BME280;9752;54.270;12.470;2023-03-16T17:25:33;101975.06;;;4.68;100.00
19236;BME280;9752;54.270;12.470;2023-03-16T17:30:35;101968.84;;;4.66;100.00
19236;BME280;9752;54.270;12.470;2023-03-16T17:35:38;101972.94;;;4.64;100.00
19236;BME280;9752;54.270;12.470;2023-03-16T17:40:40;101963.84;;;4.59;100.00
19236;BME280;9752;54.270;12.470;2023-03-16T17:45:44;101962.31;;;4.53;100.00
19236;BME280;9752;54.270;12.470;2023-03-16T17:50:48;101965.78;;;4.53;100.00
19236;BME280;9752;54.270;12.470;2023-03-16T17:55:50;101957.00;;;4.51;100.00
19236;BME280;9752;54.270;12.470;2023-03-16T18:00:53;101958.84;;;4.52;100.00
19236;BME280;9752;54.270;12.470;2023-03-16T18:05:57;101949.28;;;4.51;100.00
19236;BME280;9752;54.270;12.470;2023-03-16T18:10:59;101957.78;;;4.50;100.00
19236;BME280;9752;54.270;12.470;2023-03-16T18:16:03;101953.81;;;4.45;100.00
19236;BME280;9752;54.270;12.470;2023-03-16T18:21:14;101966.22;;;4.49;100.00
19236;BME280;9752;54.270;12.470;2023-03-16T18:26:17;101958.50;;;4.49;100.00
19236;BME280;9752;54.270;12.470;2023-03-16T18:31:21;101953.53;;;4.50;100.00
19236;BME280;9752;54.270;12.470;2023-03-16T18:36:28;101934.66;;;4.50;100.00
19236;BME280;9752;54.270;12.470;2023-03-16T18:41:31;101932.69;;;4.56;100.00
19236;BME280;9752;54.270;12.470;2023-03-16T18:46:35;101929.06;;;4.54;100.00
19236;BME280;9752;54.270;12.470;2023-03-16T18:51:40;101936.00;;;4.46;100.00
19236;BME280;9752;54.270;12.470;2023-03-16T18:56:42;101949.84;;;4.40;100.00
19236;BME280;9752;54.270;12.470;2023-03-16T19:01:44;101948.47;;;4.35;100.00
19236;BME280;9752;54.270;12.470;2023-03-16T19:06:48;101959.94;;;4.29;100.00
19236;BME280;9752;54.270;12.470;2023-03-16T19:11:51;101959.13;;;4.22;100.00
19236;BME280;9752;54.270;12.470;2023-03-16T19:16:53;101942.66;;;4.20;100.00
19236;BME280;9752;54.270;12.470;2023-03-16T19:22:01;101936.47;;;4.18;100.00
19236;BME280;9752;54.270;12.470;2023-03-16T19:27:15;101935.53;;;4.17;100.00
19236;BME280;9752;54.270;12.470;2023-03-16T19:32:20;101932.06;;;4.17;100.00
19236;BME280;9752;54.270;12.470;2023-03-16T19:37:23;101927.81;;;4.17;100.00
19236;BME280;9752;54.270;12.470;2023-03-16T19:42:28;101924.34;;;4.17;100.00
19236;BME280;9752;54.270;12.470;2023-03-16T19:47:34;101930.38;;;4.17;100.00
19236;BME280;9752;54.270;12.470;2023-03-16T19:52:38;101935.84;;;4.20;100.00
19236;BME280;9752;54.270;12.470;2023-03-16T19:57:40;101930.88;;;4.22;100.00
19236;BME280;9752;54.270;12.470;2023-03-16T20:02:43;101920.28;;;4.19;100.00
19236;BME280;9752;54.270;12.470;2023-03-16T20:07:46;101919.38;;;4.18;100.00
19236;BME280;9752;54.270;12.470;2023-03-16T20:12:50;101933.13;;;4.19;100.00
19236;BME280;9752;54.270;12.470;2023-03-16T20:17:53;101932.56;;;4.21;100.00
19236;BME280;9752;54.270;12.470;2023-03-16T20:22:56;101919.84;;;4.23;100.00
19236;BME280;9752;54.270;12.470;2023-03-16T20:28:00;101910.63;;;4.25;100.00
19236;BME280;9752;54.270;12.470;2023-03-16T20:33:03;101905.22;;;4.22;100.00
19236;BME280;9752;54.270;12.470;2023-03-16T20:38:09;101884.16;;;4.17;100.00
19236;BME280;9752;54.270;12.470;2023-03-16T20:43:21;101888.91;;;4.21;100.00
19236;BME280;9752;54.270;12.470;2023-03-16T20:48:23;101878.19;;;4.25;100.00
19236;BME280;9752;54.270;12.470;2023-03-16T20:53:27;101865.19;;;4.24;100.00
19236;BME280;9752;54.270;12.470;2023-03-16T20:58:29;101860.38;;;4.27;100.00
19236;BME280;9752;54.270;12.470;2023-03-16T21:03:31;101859.75;;;4.29;100.00
19236;BME280;9752;54.270;12.470;2023-03-16T21:08:35;101851.00;;;4.27;100.00
19236;BME280;9752;54.270;12.470;2023-03-16T21:13:37;101837.38;;;4.28;100.00
19236;BME280;9752;54.270;12.470;2023-03-16T21:18:38;101823.19;;;4.23;100.00
19236;BME280;9752;54.270;12.470;2023-03-16T21:23:42;101814.59;;;4.32;100.00
19236;BME280;9752;54.270;12.470;2023-03-16T21:28:52;101817.50;;;4.35;100.00
19236;BME280;9752;54.270;12.470;2023-03-16T21:33:55;101812.06;;;4.40;100.00
19236;BME280;9752;54.270;12.470;2023-03-16T21:38:59;101798.75;;;4.36;100.00
19236;BME280;9752;54.270;12.470;2023-03-16T21:44:00;101810.06;;;4.38;100.00
19236;BME280;9752;54.270;12.470;2023-03-16T21:49:02;101795.13;;;4.34;100.00
19236;BME280;9752;54.270;12.470;2023-03-16T21:54:11;101785.75;;;4.34;100.00
19236;BME280;9752;54.270;12.470;2023-03-16T21:59:12;101793.03;;;4.38;100.00
19236;BME280;9752;54.270;12.470;2023-03-16T22:04:16;101796.34;;;4.37;100.00
19236;BME280;9752;54.270;12.470;2023-03-16T22:09:20;101789.97;;;4.34;100.00
19236;BME280;9752;54.270;12.470;2023-03-16T22:14:24;101783.31;;;4.36;100.00
19236;BME280;9752;54.270;12.470;2023-03-16T22:19:26;101771.84;;;4.32;100.00
19236;BME280;9752;54.270;12.470;2023-03-16T22:24:29;101769.09;;;4.30;100.00
19236;BME280;9752;54.270;12.470;2023-03-16T22:29:31;101769.09;;;4.30;100.00
19236;BME280;9752;54.270;12.470;2023-03-16T22:34:40;101762.91;;;4.28;100.00
19236;BME280;9752;54.270;12.470;2023-03-16T22:39:44;101753.84;;;4.32;100.00
19236;BME280;9752;54.270;12.470;2023-03-16T22:44:46;101746.31;;;4.34;100.00
19236;BME280;9752;54.270;12.470;2023-03-16T22:49:48;101733.47;;;4.34;100.00
19236;BME280;9752;54.270;12.470;2023-03-16T22:54:51;101732.56;;;4.42;100.00
19236;BME280;9752;54.270;12.470;2023-03-16T22:59:53;101732.72;;;4.43;100.00
19236;BME280;9752;54.270;12.470;2023-03-16T23:04:55;101728.34;;;4.42;100.00
19236;BME280;9752;54.270;12.470;2023-03-16T23:09:58;101707.81;;;4.42;100.00
19236;BME280;9752;54.270;12.470;2023-03-16T23:15:00;101707.66;;;4.41;100.00
19236;BME280;9752;54.270;12.470;2023-03-16T23:20:05;101700.56;;;4.38;100.00
19236;BME280;9752;54.270;12.470;2023-03-16T23:25:18;101709.16;;;4.39;100.00
19236;BME280;9752;54.270;12.470;2023-03-16T23:30:22;101686.63;;;4.36;100.00
19236;BME280;9752;54.270;12.470;2023-03-16T23:35:26;101663.97;;;4.32;100.00
19236;BME280;9752;54.270;12.470;2023-03-16T23:40:29;101661.56;;;4.34;100.00
19236;BME280;9752;54.270;12.470;2023-03-16T23:45:33;101646.47;;;4.37;100.00
19236;BME280;9752;54.270;12.470;2023-03-16T23:50:38;101633.59;;;4.45;100.00
19236;BME280;9752;54.270;12.470;2023-03-16T23:55:43;101649.16;;;4.47;100.00
